• Join FlightAware (Why Join?)
  • Login
  • US Flag 
11:47AM EDT


 

Airport Tracker/Info


-or-


 

Live Flight TrackerFlight Track Log ✈ UAL235 ✈ 28-Apr-2013 ✈ KDEN - KLAX

Flight Track Log - Related Links

Times and Time Zones

All times are in EDT time to prevent confusion due to time zone crossing. See the UAL235 flight status page for this flight to view local times or setup timezone preferences in your user account.

Time Position Orientation Groundspeed Altitude Reporting Facility
EDT Latitude Longitude Course Direction KTS MPH feet Rate Location/Type
05:48PM 39.8333 -104.7667 255° West 197 227 7,000  Level Denver TRACON
05:49PM 39.8167 -104.8500 255° West 246 283 8,800 1,620 Climbing Denver TRACON
05:50PM 39.8047 -104.8861 247° West 247 284 9,400 2,640 Climbing Denver Center
05:51PM 39.7767 -104.9942 251° West 288 331 12,700 3,060 Climbing Denver Center
05:52PM 39.6465 -105.3229 249° West  Level FlightAware Approximate
05:52PM 39.7378 -105.0872 242° Southwest 297 342 15,700  Level Denver Center
05:53PM 39.5979 -105.4494 241° Southwest  Level FlightAware Approximate
05:53PM 39.6911 -105.1569 229° Southwest 302 348 17,700  Level Denver Center
05:54PM 39.5574 -105.5799 255° West  Level FlightAware Approximate
05:54PM 39.6264 -105.2589 231° Southwest 290 334 21,400  Level Denver Center
05:55PM 39.6378 -105.3697 278° West 323 372 22,500 960 Climbing Denver Center
05:57PM 39.5611 -105.5614 255° West  Level FlightAware Approximate
05:57PM 39.5522 -105.6219 255° West 382 440 24,700  Level Denver Center
05:58PM 39.5078 -105.7775 250° West 395 455 26,600 1,740 Climbing Denver Center
05:59PM 39.4717 -105.9153 251° West 399 459 28,300 1,440 Climbing Denver Center
06:00PM 39.4375 -106.0325 249° West 411 473 29,600 1,260 Climbing Denver Center
06:01PM 39.3908 -106.2025 250° West 426 490 30,900 1,380 Climbing Denver Center
06:02PM 39.3500 -106.3406 249° West 430 495 32,500 1,500 Climbing Denver Center
06:03PM 39.3053 -106.5000 250° West 424 488 34,100 1,320 Climbing Denver Center
06:04PM 39.2658 -106.6369 250° West 424 488 35,300 900 Climbing Denver Center
06:05PM 39.2039 -106.7825 241° Southwest 415 478 36,000 300 Climbing Denver Center
06:07PM 39.1308 -106.8978 231° Southwest 426 490 36,000  Level Denver Center
06:08PM 39.0458 -107.0308 231° Southwest 429 494 36,000  Level Denver Center
06:09PM 38.9744 -107.1453 231° Southwest 428 493 36,000  Level Denver Center
06:10PM 38.9011 -107.2606 231° Southwest 432 497 36,000  Level Denver Center
06:11PM 38.8153 -107.3944 231° Southwest 433 498 36,000  Level Denver Center
06:12PM 38.7442 -107.5061 231° Southwest 426 490 36,000 -60 Level Denver Center
06:13PM 38.6592 -107.6375 230° Southwest 427 491 35,900  Descending Denver Center
06:14PM 38.5872 -107.7497 231° Southwest 426 490 36,000  Climbing Denver Center
06:15PM 38.5025 -107.8789 230° Southwest 425 489 36,000  Level Denver Center
06:16PM 38.4311 -107.9897 231° Southwest 423 487 36,000  Level Denver Center
06:17PM 38.3464 -108.1211 231° Southwest 426 490 36,000  Level Denver Center
06:18PM 38.2856 -108.2136 230° Southwest 427 491 36,000  Level Denver Center
06:19PM 38.2003 -108.3433 230° Southwest 428 493 36,000  Level Denver Center
06:20PM 38.1136 -108.4742 230° Southwest 430 495 36,000  Level Denver Center
06:21PM 38.0381 -108.5878 230° Southwest 427 491 36,000  Level Denver Center
06:22PM 37.9528 -108.7156 230° Southwest 425 489 36,000  Level Denver Center
06:23PM 37.8786 -108.8272 230° Southwest 430 495 36,000  Level Denver Center
06:24PM 37.8067 -108.9378 231° Southwest 426 490 36,000  Level Denver Center
06:25PM 37.7408 -109.0828 240° Southwest 424 488 36,000  Level Denver Center
06:26PM 37.6861 -109.2069 241° Southwest 423 487 36,000  Level Denver Center
06:27PM 37.6217 -109.3525 241° Southwest 425 489 36,000  Level Denver Center
06:28PM 37.5656 -109.4772 240° Southwest 427 491 36,000  Level Denver Center
06:29PM 37.5006 -109.6219 241° Southwest 425 489 36,000  Level Denver Center
06:30PM 37.4439 -109.7469 240° Southwest 428 493 36,000  Level Denver Center
06:31PM 37.3781 -109.8919 240° Southwest 430 495 36,000  Level Denver Center
06:32PM 37.3231 -110.0150 241° Southwest 424 488 36,000  Level Denver Center
06:33PM 37.2567 -110.1586 240° Southwest 425 489 36,000  Level Denver Center
06:34PM 37.1956 -110.2903 240° Southwest 426 490 36,000  Level Denver Center
06:35PM 37.1381 -110.4197 241° Southwest 426 490 36,000  Level Denver Center
06:36PM 37.0778 -110.5475 239° Southwest 426 490 36,000  Level Denver Center
06:37PM 37.0164 -110.6792 240° Southwest 432 497 36,000  Level Denver Center
06:38PM 36.9556 -110.8094 240° Southwest 433 498 36,000  Level Denver Center
06:40PM 36.8950 -110.9375 239° Southwest 429 494 36,000  Level Denver Center
06:41PM 36.8344 -111.0683 240° Southwest 432 497 36,000  Level Denver Center
06:42PM 36.7611 -111.2225 239° Southwest 431 496 36,000  Level Denver Center
06:43PM 36.6992 -111.3539 240° Southwest 436 502 36,000  Level Denver Center
06:44PM 36.6358 -111.4850 239° Southwest 438 504 36,000  Level Denver Center
06:45PM 36.5739 -111.6153 239° Southwest 438 504 36,000  Level Denver Center
06:46PM 36.5111 -111.7456 239° Southwest 438 504 36,000  Level Denver Center
06:47PM 36.4478 -111.8775 239° Southwest 441 507 36,000  Level Denver Center
06:48PM 36.3986 -111.9842 240° Southwest 440 506 36,000  Level Los Angeles Center
06:49PM 36.3433 -112.1192 243° Southwest 438 504 36,000  Level Los Angeles Center
06:50PM 36.2767 -112.2797 243° Southwest 437 503 36,000  Level Los Angeles Center
06:51PM 36.2206 -112.4125 242° Southwest 435 501 36,000  Level Los Angeles Center
06:52PM 36.1650 -112.5447 243° Southwest 433 498 36,000  Level Los Angeles Center
06:53PM 36.1089 -112.6781 243° Southwest 435 501 36,000  Level Los Angeles Center
06:54PM 36.0531 -112.8108 243° Southwest 436 502 36,000  Level Los Angeles Center
06:55PM 35.9956 -112.9458 242° Southwest 441 507 36,000  Level Los Angeles Center
06:56PM 35.9367 -113.0842 242° Southwest 442 509 36,000  Level Los Angeles Center
06:57PM 35.8689 -113.2425 242° Southwest 441 507 36,000  Level Los Angeles Center
06:58PM 35.8119 -113.3744 242° Southwest 442 509 36,000  Level Los Angeles Center
06:59PM 35.7550 -113.5061 242° Southwest 442 509 36,000  Level Los Angeles Center
07:00PM 35.6975 -113.6369 242° Southwest 441 507 36,000  Level Los Angeles Center
07:01PM 35.6403 -113.7711 242° Southwest 444 511 36,000  Level Los Angeles Center
07:02PM 35.5706 -113.9300 242° Southwest 444 511 36,000  Level Los Angeles Center
07:03PM 35.5125 -114.0614 242° Southwest 444 511 36,000  Level Los Angeles Center
07:04PM 35.4547 -114.1925 242° Southwest 442 509 36,000  Level Los Angeles Center
07:05PM 35.3875 -114.3444 242° Southwest 439 505 36,000  Level Los Angeles Center
07:06PM 35.3283 -114.4758 241° Southwest 439 505 36,000  Level Los Angeles Center
07:07PM 35.2578 -114.6347 241° Southwest 441 507 36,000  Level Los Angeles Center
07:08PM 35.1981 -114.7658 241° Southwest 441 507 36,000  Level Los Angeles Center
07:09PM 35.1394 -114.8972 241° Southwest 439 505 36,000  Level Los Angeles Center
07:11PM 35.0797 -115.0292 241° Southwest 441 507 36,000  Level Los Angeles Center
07:12PM 35.0083 -115.1864 241° Southwest 440 506 36,000  Level Los Angeles Center
07:13PM 34.9589 -115.2914 240° Southwest 442 509 36,000  Level Los Angeles Center
07:14PM 34.8892 -115.4450 241° Southwest 436 502 36,000  Level Los Angeles Center
07:15PM 34.8303 -115.5731 241° Southwest 434 499 36,000  Level Los Angeles Center
07:16PM 34.7708 -115.7044 241° Southwest 437 503 36,000  Level Los Angeles Center
07:17PM 34.7114 -115.8336 241° Southwest 437 503 36,000  Level Los Angeles Center
07:18PM 34.6517 -115.9600 240° Southwest 435 501 36,000 -300 Level Los Angeles Center
07:19PM 34.5925 -116.0883 241° Southwest 434 499 35,400 -1,380 Descending Los Angeles Center
07:20PM 34.5206 -116.2414 240° Southwest 435 501 33,200 -2,100 Descending Los Angeles Center
07:21PM 34.4597 -116.3703 240° Southwest 439 505 31,100 -2,040 Descending Los Angeles Center
07:22PM 34.4003 -116.4950 240° Southwest 430 495 29,000 -2,100 Descending Los Angeles Center
07:23PM 34.3403 -116.6217 240° Southwest 433 498 26,800 -2,160 Descending Los Angeles Center
07:24PM 34.2733 -116.7625 240° Southwest 477 549 24,600 -2,220 Descending Los Angeles Center
07:25PM 34.2078 -116.8978 240° Southwest 469 540 22,300 -2,400 Descending Los Angeles Center
07:26PM 34.1336 -117.0522 240° Southwest 445 512 19,700 -2,580 Descending Los Angeles Center
07:27PM 34.0833 -117.1667 242° Southwest 434 499 17,200 -2,100 Descending Southern California TRACON
07:28PM 34.0500 -117.3000 253° West 395 455 15,700 -1,740 Descending Southern California TRACON
07:29PM 34.0333 -117.4333 261° West 378 435 13,800 -1,680 Descending Southern California TRACON
07:30PM 34.0167 -117.5500 260° West 377 434 12,400 -1,020 Descending Southern California TRACON
07:31PM 34.0167 -117.6667 270° West 311 358 11,800 -1,320 Descending Southern California TRACON
07:32PM 34.0000 -117.7667 259° West 301 346 9,800 -1,800 Descending Southern California TRACON
07:33PM 33.9833 -117.8667 259° West 287 330 8,200 -1,620 Descending Southern California TRACON
07:34PM 33.9833 -117.9667 270° West 287 330 6,600 -960 Descending Southern California TRACON
07:35PM 33.9667 -118.0500 256° West 226 260 6,200 -780 Descending Southern California TRACON
07:36PM 33.9667 -118.1167 270° West 185 213 5,000 -1,080 Descending Southern California TRACON
07:37PM 33.9667 -118.1667 270° West 180 207 4,200 -1,020 Descending Southern California TRACON
07:37PM 33.9581 -118.1822 236° Southwest 182 209 3,700 -1,200 Descending Los Angeles Center
07:38PM 33.9525 -118.2369 263° West 172 198 2,500 -960 Descending Los Angeles Center
07:39PM 33.9478 -118.2883 264° West 164 189 1,700 -780 Descending Los Angeles Center